createdAt,value
2023-02-05T00:00:52.311Z,6.50
2023-02-05T00:03:39.571Z,5.20
2023-02-05T00:06:08.003Z,3.80
2023-02-05T00:08:36.223Z,5.00
2023-02-05T00:11:09.384Z,5.90
2023-02-05T00:13:41.432Z,5.10
2023-02-05T00:16:19.686Z,4.60
2023-02-05T00:18:48.310Z,5.00
2023-02-05T00:21:17.787Z,5.70
2023-02-05T00:23:47.354Z,4.40
2023-02-05T00:26:15.688Z,4.70
2023-02-05T00:28:44.878Z,6.50
2023-02-05T00:31:20.518Z,5.90
2023-02-05T00:33:50.104Z,8.80
2023-02-05T00:36:21.194Z,4.70
2023-02-05T00:38:50.185Z,6.80
2023-02-05T00:41:20.194Z,5.10
2023-02-05T00:43:48.421Z,5.70
2023-02-05T00:46:17.073Z,4.30
2023-02-05T00:48:45.277Z,3.50
2023-02-05T00:51:13.384Z,5.00
2023-02-05T00:53:41.547Z,4.70
2023-02-05T00:56:09.719Z,4.00
2023-02-05T00:58:37.990Z,5.60
2023-02-05T01:01:06.614Z,3.80
2023-02-05T01:03:34.821Z,3.80
2023-02-05T01:06:03.467Z,3.40
2023-02-05T01:08:32.266Z,3.10
2023-02-05T01:11:01.309Z,2.80
2023-02-05T01:13:29.472Z,7.90
2023-02-05T01:15:57.638Z,4.40
2023-02-05T01:18:25.840Z,3.60
2023-02-05T01:20:54.298Z,3.90
2023-02-05T01:23:22.448Z,5.80
2023-02-05T01:25:50.709Z,5.00
2023-02-05T01:28:19.056Z,2.70
2023-02-05T01:30:49.811Z,4.60
2023-02-05T01:33:19.132Z,6.80
2023-02-05T01:35:47.294Z,3.80
2023-02-05T01:38:15.555Z,4.40
2023-02-05T01:40:43.939Z,5.20
2023-02-05T01:43:17.747Z,4.60
2023-02-05T01:46:26.093Z,6.40
2023-02-05T01:48:57.945Z,8.50
2023-02-05T01:51:30.596Z,7.20
2023-02-05T01:53:59.728Z,5.90
2023-02-05T01:56:53.807Z,6.50
2023-02-05T01:59:27.332Z,4.30
2023-02-05T02:01:55.649Z,9.40
2023-02-05T02:04:45.513Z,4.80
2023-02-05T02:07:21.568Z,3.90
2023-02-05T02:09:51.619Z,6.70
2023-02-05T02:12:24.681Z,6.10
2023-02-05T02:14:59.273Z,5.70
2023-02-05T02:17:28.930Z,3.00
2023-02-05T02:20:14.270Z,4.10
2023-02-05T02:22:54.739Z,4.40
2023-02-05T02:25:54.038Z,4.50
2023-02-05T02:28:37.106Z,4.60
2023-02-05T02:31:26.129Z,4.10
2023-02-05T02:34:16.607Z,5.00
2023-02-05T02:36:58.423Z,4.00
2023-02-05T02:39:38.794Z,5.70
2023-02-05T02:42:24.082Z,4.50
2023-02-05T02:45:01.900Z,6.40
2023-02-05T02:47:40.196Z,5.40
2023-02-05T02:50:23.101Z,6.30
2023-02-05T02:55:22.641Z,5.40
2023-02-05T02:57:52.617Z,4.90
2023-02-05T03:00:26.972Z,4.90
2023-02-05T03:03:04.388Z,4.60
2023-02-05T03:05:35.837Z,6.70
2023-02-05T03:08:16.924Z,7.80
2023-02-05T03:10:56.879Z,3.50
2023-02-05T03:13:25.360Z,4.70
2023-02-05T03:15:57.066Z,4.60
2023-02-05T03:18:25.455Z,5.90
2023-02-05T03:20:58.632Z,3.20
2023-02-05T03:25:56.160Z,2.60
2023-02-05T03:28:30.134Z,3.40
2023-02-05T03:31:12.076Z,2.70
2023-02-05T03:34:02.800Z,2.30
2023-02-05T03:36:52.573Z,3.80
2023-02-05T03:39:35.820Z,2.30
2023-02-05T03:42:28.908Z,3.30
2023-02-05T03:45:41.038Z,3.90
2023-02-05T03:48:21.822Z,2.80
2023-02-05T03:51:04.096Z,2.90
2023-02-05T03:53:53.142Z,4.50
2023-02-05T03:56:32.414Z,3.10
2023-02-05T03:59:02.683Z,2.40
2023-02-05T04:01:31.975Z,2.90
2023-02-05T04:04:00.549Z,2.40
2023-02-05T04:06:29.820Z,4.30
2023-02-05T04:08:58.001Z,5.70
2023-02-05T04:11:26.596Z,2.20
2023-02-05T04:13:54.849Z,2.40
2023-02-05T04:16:23.090Z,2.90
2023-02-05T04:18:51.714Z,3.70
2023-02-05T04:21:19.963Z,3.40
2023-02-05T04:23:48.175Z,2.90
2023-02-05T04:26:16.386Z,4.10
2023-02-05T04:28:49.829Z,4.50
2023-02-05T04:31:18.294Z,5.50
2023-02-05T04:33:46.619Z,3.70
2023-02-05T04:36:15.846Z,5.30
2023-02-05T04:38:44.208Z,8.00
2023-02-05T04:41:12.344Z,5.80
2023-02-05T04:43:40.392Z,7.20
2023-02-05T04:46:12.043Z,3.40
2023-02-05T04:48:40.855Z,3.50
2023-02-05T04:51:14.725Z,6.40
2023-02-05T04:53:43.385Z,4.20
2023-02-05T04:56:17.264Z,5.00
2023-02-05T04:58:45.888Z,5.80
2023-02-05T05:01:21.173Z,2.80
2023-02-05T05:03:50.167Z,3.80
2023-02-05T05:06:19.142Z,4.10
2023-02-05T05:08:47.322Z,3.60
2023-02-05T05:11:19.116Z,3.60
2023-02-05T05:13:48.670Z,6.70
2023-02-05T05:16:16.912Z,4.50
2023-02-05T05:18:45.254Z,5.40
2023-02-05T05:21:13.531Z,3.40
2023-02-05T05:23:41.606Z,5.00
2023-02-05T05:26:12.181Z,4.80
2023-02-05T05:28:40.630Z,4.70
2023-02-05T05:31:16.866Z,3.30
2023-02-05T05:33:45.655Z,4.90
2023-02-05T05:36:14.155Z,3.20
2023-02-05T05:38:42.546Z,6.20
2023-02-05T05:41:41.817Z,6.60
2023-02-05T05:44:10.266Z,7.10
2023-02-05T05:46:38.409Z,4.60
2023-02-05T05:49:06.534Z,5.90
2023-02-05T05:51:34.624Z,5.60
2023-02-05T05:54:02.703Z,9.80
2023-02-05T05:56:30.886Z,6.20
2023-02-05T05:58:59.022Z,4.90
2023-02-05T06:01:27.595Z,6.20
2023-02-05T06:03:55.914Z,5.80
2023-02-05T06:06:24.096Z,5.90
2023-02-05T06:08:52.257Z,7.80
2023-02-05T06:11:21.544Z,4.70
2023-02-05T06:13:49.660Z,4.30
2023-02-05T06:16:17.803Z,5.30
2023-02-05T06:18:45.941Z,6.80
2023-02-05T06:21:14.438Z,5.40
2023-02-05T06:23:42.690Z,8.30
2023-02-05T06:26:10.810Z,5.60
2023-02-05T06:28:39.035Z,4.50
2023-02-05T06:31:07.254Z,4.60
2023-02-05T06:33:35.448Z,5.20
2023-02-05T06:36:04.047Z,8.40
2023-02-05T06:38:32.170Z,5.60
2023-02-05T06:41:00.488Z,3.70
2023-02-05T06:43:28.604Z,5.60
2023-02-05T06:45:56.754Z,7.80
2023-02-05T06:48:24.873Z,7.10
2023-02-05T06:50:52.970Z,7.50
2023-02-05T06:53:21.115Z,7.10
2023-02-05T06:55:49.328Z,7.30
2023-02-05T06:58:17.423Z,6.00
2023-02-05T07:00:45.447Z,6.70
2023-02-05T07:03:13.550Z,6.20
2023-02-05T07:05:41.663Z,7.00
2023-02-05T07:08:09.845Z,7.00
2023-02-05T07:10:38.042Z,8.50
2023-02-05T07:13:06.174Z,4.60
2023-02-05T07:15:37.687Z,9.10
2023-02-05T07:18:06.683Z,7.60
2023-02-05T07:20:35.199Z,7.20
2023-02-05T07:23:03.676Z,5.80
2023-02-05T07:25:37.878Z,10.10
2023-02-05T07:28:08.415Z,6.70
2023-02-05T07:30:36.906Z,7.90
2023-02-05T07:33:05.280Z,11.80
2023-02-05T07:35:37.827Z,6.10
2023-02-05T07:38:06.278Z,7.80
2023-02-05T07:40:34.598Z,6.90
2023-02-05T07:43:02.723Z,10.00
2023-02-05T07:45:30.857Z,7.00
2023-02-05T07:47:58.942Z,8.10
2023-02-05T07:50:27.083Z,8.20
2023-02-05T07:52:55.430Z,8.50
2023-02-05T07:55:23.610Z,9.20
2023-02-05T07:57:51.739Z,7.30
2023-02-05T08:00:20.206Z,8.10
2023-02-05T08:02:48.279Z,8.50
2023-02-05T08:05:16.509Z,7.30
2023-02-05T08:07:44.648Z,10.50
2023-02-05T08:10:14.979Z,12.80
2023-02-05T08:12:43.134Z,12.90
2023-02-05T08:15:12.568Z,13.80
2023-02-05T08:17:41.181Z,8.00
2023-02-05T08:20:10.671Z,8.90
2023-02-05T08:22:41.436Z,9.40
2023-02-05T08:25:14.257Z,8.30
2023-02-05T08:27:43.738Z,11.00
2023-02-05T08:30:15.660Z,12.20
2023-02-05T08:32:49.222Z,12.00
2023-02-05T08:35:18.001Z,12.60
2023-02-05T08:37:46.217Z,7.20
2023-02-05T08:40:14.710Z,10.50
2023-02-05T08:42:42.822Z,9.40
2023-02-05T08:45:10.984Z,9.80
2023-02-05T08:47:39.091Z,12.10
2023-02-05T08:50:07.542Z,11.10
2023-02-05T08:52:35.948Z,11.40
2023-02-05T08:55:04.637Z,11.50
2023-02-05T08:57:32.803Z,8.30
2023-02-05T09:00:00.988Z,11.50
2023-02-05T09:02:31.990Z,12.00
2023-02-05T09:05:08.601Z,13.60
2023-02-05T09:07:39.606Z,12.50
2023-02-05T09:10:10.370Z,12.90
2023-02-05T09:12:39.174Z,11.20
2023-02-05T09:15:08.578Z,10.70
2023-02-05T09:17:36.669Z,9.80
2023-02-05T09:20:05.125Z,13.10
2023-02-05T09:22:33.258Z,15.10
2023-02-05T09:25:01.584Z,18.70
2023-02-05T09:27:30.488Z,14.90
2023-02-05T09:29:58.698Z,9.70
2023-02-05T09:32:26.892Z,6.80
2023-02-05T09:34:55.066Z,7.60
2023-02-05T09:37:23.130Z,8.70
2023-02-05T09:42:49.794Z,10.40
2023-02-05T09:45:39.240Z,12.70
2023-02-05T09:48:37.820Z,17.70
2023-02-05T09:51:11.134Z,9.60
2023-02-05T09:53:46.032Z,11.70
2023-02-05T09:56:16.340Z,13.90
2023-02-05T09:58:49.969Z,10.40
2023-02-05T10:01:45.262Z,13.40
2023-02-05T10:04:14.388Z,9.60
2023-02-05T10:07:00.539Z,7.90
2023-02-05T10:09:59.997Z,10.20
2023-02-05T10:13:11.582Z,8.90
2023-02-05T10:16:05.948Z,7.20
2023-02-05T10:19:35.096Z,11.10
2023-02-05T10:22:51.340Z,9.40
2023-02-05T10:25:32.961Z,9.80
2023-02-05T10:28:38.042Z,5.40
2023-02-05T10:31:43.242Z,9.40
2023-02-05T10:34:30.440Z,8.60
2023-02-05T10:37:00.408Z,9.40
2023-02-05T10:39:30.843Z,9.40
2023-02-05T10:42:39.660Z,8.70
2023-02-05T10:45:23.713Z,9.20
2023-02-05T10:48:29.074Z,8.60
2023-02-05T10:51:07.798Z,7.80
2023-02-05T10:53:36.326Z,7.50
2023-02-05T10:56:05.571Z,9.40
2023-02-05T10:59:00.318Z,7.50
2023-02-05T11:01:38.157Z,10.60
2023-02-05T11:04:38.267Z,12.90
2023-02-05T11:07:13.580Z,9.40
2023-02-05T11:09:41.800Z,9.90
2023-02-05T11:12:31.745Z,9.20
2023-02-05T11:15:02.752Z,7.50
2023-02-05T11:17:38.149Z,8.70
2023-02-05T11:20:24.421Z,11.50
2023-02-05T11:23:18.390Z,6.60
2023-02-05T11:25:53.552Z,7.50
2023-02-05T11:28:35.868Z,8.40
2023-02-05T11:31:34.985Z,8.70
2023-02-05T11:34:21.035Z,11.90
2023-02-05T11:36:54.035Z,9.60
2023-02-05T11:39:36.932Z,8.80
2023-02-05T11:42:24.960Z,7.00
2023-02-05T11:44:59.125Z,9.70
2023-02-05T11:47:36.268Z,10.70
2023-02-05T11:50:18.858Z,10.70
2023-02-05T11:52:47.243Z,14.30
2023-02-05T11:55:35.570Z,12.40
2023-02-05T11:58:07.442Z,8.10
2023-02-05T12:00:35.920Z,11.50
2023-02-05T12:03:19.202Z,7.60
2023-02-05T12:06:02.401Z,11.90
2023-02-05T12:08:53.356Z,11.00
2023-02-05T12:12:04.122Z,10.10
2023-02-05T12:15:13.630Z,9.00
2023-02-05T12:18:24.302Z,5.20
2023-02-05T12:21:22.093Z,5.50
2023-02-05T12:24:14.402Z,6.90
2023-02-05T12:26:45.698Z,5.80
2023-02-05T12:29:29.585Z,6.80
2023-02-05T12:32:13.495Z,6.20
2023-02-05T12:35:07.817Z,7.30
2023-02-05T12:37:51.215Z,6.20
2023-02-05T12:40:51.630Z,7.70
2023-02-05T12:43:42.170Z,7.70
2023-02-05T12:46:55.463Z,8.00
2023-02-05T12:50:00.292Z,6.30
2023-02-05T12:52:41.628Z,7.70
2023-02-05T12:55:37.178Z,5.80
2023-02-05T12:58:09.394Z,5.00
2023-02-05T13:00:47.565Z,6.60
2023-02-05T13:03:27.597Z,7.90
2023-02-05T13:06:03.395Z,7.40
2023-02-05T13:08:43.692Z,7.70
2023-02-05T13:11:23.799Z,5.30
2023-02-05T13:14:01.028Z,9.60
2023-02-05T13:16:46.328Z,6.30
2023-02-05T13:19:40.940Z,5.70
2023-02-05T13:22:47.492Z,5.10
2023-02-05T13:25:37.893Z,6.10
2023-02-05T13:28:40.196Z,7.60
2023-02-05T13:31:17.398Z,5.60
2023-02-05T13:33:45.977Z,5.20
2023-02-05T13:36:27.310Z,5.60
2023-02-05T13:39:33.814Z,8.60
2023-02-05T13:42:42.695Z,9.20
2023-02-05T13:45:28.878Z,8.80
2023-02-05T13:48:12.500Z,12.60
2023-02-05T13:51:14.970Z,5.80
2023-02-05T13:54:23.128Z,7.10
2023-02-05T13:57:23.610Z,5.00
2023-02-05T13:59:54.108Z,7.50
2023-02-05T14:02:42.011Z,8.30
2023-02-05T14:05:13.610Z,10.20
2023-02-05T14:07:49.125Z,6.80
2023-02-05T14:10:30.309Z,8.20
2023-02-05T14:13:34.576Z,6.40
2023-02-05T14:16:25.048Z,9.10
2023-02-05T14:19:01.992Z,11.90
2023-02-05T14:21:30.095Z,9.20
2023-02-05T14:24:03.685Z,7.90
2023-02-05T14:26:56.193Z,7.30
2023-02-05T14:29:51.346Z,7.90
2023-02-05T14:32:28.664Z,9.80
2023-02-05T14:35:18.656Z,9.70
2023-02-05T14:37:49.642Z,7.40
2023-02-05T14:40:23.402Z,10.60
2023-02-05T14:43:08.388Z,9.60
2023-02-05T14:45:46.194Z,10.50
2023-02-05T14:48:28.967Z,9.40
2023-02-05T14:51:31.887Z,10.20
2023-02-05T14:54:25.460Z,12.20
2023-02-05T14:57:15.650Z,6.70
2023-02-05T15:00:01.919Z,6.70
2023-02-05T15:03:07.667Z,8.60
2023-02-05T15:05:52.165Z,10.50
2023-02-05T15:08:35.573Z,7.80
2023-02-05T15:14:21.417Z,11.60
2023-02-05T15:17:09.215Z,20.30
2023-02-05T15:19:50.121Z,21.10
2023-02-05T15:22:25.749Z,14.00
2023-02-05T15:24:55.868Z,11.80
2023-02-05T15:27:50.123Z,13.10
2023-02-05T15:30:24.322Z,13.00
2023-02-05T15:33:08.387Z,12.50
2023-02-05T15:35:37.701Z,12.80
2023-02-05T15:38:11.803Z,15.70
2023-02-05T15:40:41.818Z,14.40
2023-02-05T15:43:17.917Z,23.50
2023-02-05T15:45:46.978Z,9.40
2023-02-05T15:48:18.993Z,9.60
2023-02-05T15:51:17.767Z,9.30
2023-02-05T15:53:51.064Z,9.30
2023-02-05T15:56:32.835Z,11.30
2023-02-05T15:59:09.801Z,9.20
2023-02-05T16:01:39.920Z,11.30
2023-02-05T16:04:18.625Z,14.60
2023-02-05T16:06:47.134Z,14.70
2023-02-05T16:09:21.876Z,14.00
2023-02-05T16:11:50.570Z,11.90
2023-02-05T16:14:28.519Z,11.90
2023-02-05T16:17:11.150Z,10.10
2023-02-05T16:19:54.087Z,14.60
2023-02-05T16:22:28.862Z,14.70
2023-02-05T16:25:02.121Z,13.20
2023-02-05T16:27:44.586Z,13.00
2023-02-05T16:30:43.618Z,11.10
2023-02-05T16:33:48.473Z,11.90
2023-02-05T16:36:32.008Z,12.20
2023-02-05T16:39:04.916Z,9.00
2023-02-05T16:41:39.787Z,9.20
2023-02-05T16:44:27.972Z,11.20
2023-02-05T16:47:26.284Z,10.10
2023-02-05T16:49:54.431Z,14.70
2023-02-05T16:52:33.150Z,13.80
2023-02-05T16:55:28.347Z,20.60
2023-02-05T16:58:04.833Z,14.40
2023-02-05T17:00:34.337Z,17.40
2023-02-05T17:03:16.496Z,10.80
2023-02-05T17:05:44.959Z,17.50
2023-02-05T17:08:13.190Z,35.30
2023-02-05T17:10:56.916Z,32.00
2023-02-05T17:13:42.702Z,24.70
2023-02-05T17:16:32.208Z,25.20
2023-02-05T17:19:06.489Z,45.20
2023-02-05T17:21:37.047Z,81.90
2023-02-05T17:24:09.227Z,45.20
2023-02-05T17:26:40.794Z,24.60
2023-02-05T17:29:15.408Z,22.90
2023-02-05T17:31:43.811Z,22.20
2023-02-05T17:34:12.026Z,19.30
2023-02-05T17:36:40.611Z,22.00
2023-02-05T17:39:08.746Z,19.20
2023-02-05T17:41:56.070Z,17.80
2023-02-05T17:44:24.304Z,18.20
2023-02-05T17:46:54.211Z,22.40
2023-02-05T17:49:22.417Z,23.60
2023-02-05T17:51:50.580Z,20.10
2023-02-05T17:54:23.038Z,17.40
2023-02-05T17:56:54.666Z,16.50
2023-02-05T17:59:25.841Z,17.30
2023-02-05T18:01:54.067Z,18.40
2023-02-05T18:04:22.196Z,25.90
2023-02-05T18:06:50.422Z,31.40
2023-02-05T18:09:19.897Z,27.50
2023-02-05T18:11:48.121Z,23.30
2023-02-05T18:14:16.313Z,20.90
2023-02-05T18:16:44.929Z,30.20
2023-02-05T18:19:13.961Z,28.40
2023-02-05T18:21:42.290Z,28.50
2023-02-05T18:24:10.398Z,30.50
2023-02-05T18:26:38.577Z,31.40
2023-02-05T18:29:06.713Z,29.30
2023-02-05T18:31:35.276Z,31.80
2023-02-05T18:34:03.476Z,25.80
2023-02-05T18:36:31.609Z,26.30
2023-02-05T18:38:59.764Z,25.60
2023-02-05T18:41:28.664Z,26.40
2023-02-05T18:43:58.314Z,30.20
2023-02-05T18:46:26.522Z,28.90
2023-02-05T18:48:55.306Z,20.30
2023-02-05T18:51:24.097Z,27.60
2023-02-05T18:53:52.675Z,24.90
2023-02-05T18:56:27.311Z,16.40
2023-02-05T18:59:06.029Z,14.30
2023-02-05T19:01:38.248Z,14.70
2023-02-05T19:04:10.938Z,21.70
2023-02-05T19:06:44.048Z,19.40
2023-02-05T19:11:41.040Z,30.30
2023-02-05T19:14:13.786Z,25.70
2023-02-05T19:16:42.794Z,35.40
2023-02-05T19:19:14.851Z,40.20
2023-02-05T19:21:44.867Z,22.60
2023-02-05T19:24:14.107Z,38.70
2023-02-05T19:26:44.158Z,35.40
2023-02-05T19:29:18.000Z,21.50
2023-02-05T19:31:47.429Z,34.10
2023-02-05T19:34:16.410Z,24.50
2023-02-05T19:36:44.705Z,22.70
2023-02-05T19:39:14.617Z,21.50
2023-02-05T19:41:45.893Z,20.20
2023-02-05T19:44:14.356Z,20.00
2023-02-05T19:46:48.708Z,20.70
2023-02-05T19:49:20.211Z,18.10
2023-02-05T19:51:52.366Z,21.40
2023-02-05T19:54:21.832Z,35.60
2023-02-05T19:56:50.665Z,30.20
2023-02-05T19:59:19.401Z,20.50
2023-02-05T20:01:48.454Z,17.80
2023-02-05T20:04:22.244Z,14.40
2023-02-05T20:06:54.923Z,14.40
2023-02-05T20:09:23.425Z,12.10
2023-02-05T20:11:53.277Z,18.10
2023-02-05T20:14:23.506Z,12.40
2023-02-05T20:16:52.368Z,17.80
2023-02-05T20:19:20.792Z,14.70
2023-02-05T20:21:49.220Z,22.30
2023-02-05T20:24:17.472Z,17.40
2023-02-05T20:26:50.150Z,22.30
2023-02-05T20:29:36.985Z,23.30
2023-02-05T20:32:06.324Z,19.50
2023-02-05T20:34:36.275Z,15.90
2023-02-05T20:37:07.329Z,17.50
2023-02-05T20:39:39.671Z,19.80
2023-02-05T20:42:10.541Z,17.80
2023-02-05T20:44:39.844Z,17.70
2023-02-05T20:47:12.388Z,13.10
2023-02-05T20:49:41.964Z,12.00
2023-02-05T20:52:10.676Z,13.90
2023-02-05T20:54:38.958Z,13.40
2023-02-05T20:57:07.820Z,13.80
2023-02-05T20:59:36.615Z,16.40
2023-02-05T21:02:04.790Z,13.90
2023-02-05T21:04:33.374Z,14.50
2023-02-05T21:07:01.573Z,11.70
2023-02-05T21:09:29.824Z,13.30
2023-02-05T21:11:57.963Z,16.20
2023-02-05T21:14:26.187Z,16.80
2023-02-05T21:16:54.297Z,15.00
2023-02-05T21:19:23.128Z,10.90
2023-02-05T21:21:52.193Z,12.70
2023-02-05T21:24:21.299Z,13.50
2023-02-05T21:26:49.933Z,14.90
2023-02-05T21:29:21.014Z,12.60
2023-02-05T21:31:53.858Z,11.90
2023-02-05T21:34:26.377Z,15.00
2023-02-05T21:36:56.094Z,15.70
2023-02-05T21:39:25.483Z,17.60
2023-02-05T21:41:54.820Z,23.20
2023-02-05T21:44:24.098Z,14.70
2023-02-05T21:46:54.638Z,14.00
2023-02-05T21:49:22.896Z,13.70
2023-02-05T21:51:53.209Z,13.40
2023-02-05T21:54:25.393Z,12.70
2023-02-05T21:56:54.346Z,14.10
2023-02-05T21:59:22.878Z,15.00
2023-02-05T22:01:51.149Z,12.70
2023-02-05T22:04:19.337Z,15.80
2023-02-05T22:06:47.469Z,14.70
2023-02-05T22:09:16.817Z,12.20
2023-02-05T22:11:45.065Z,11.10
2023-02-05T22:14:13.508Z,11.30
2023-02-05T22:16:42.179Z,10.10
2023-02-05T22:19:11.009Z,9.00
2023-02-05T22:21:42.337Z,12.00
2023-02-05T22:24:17.776Z,12.90
2023-02-05T22:26:47.084Z,13.40
2023-02-05T22:29:18.834Z,10.80
2023-02-05T22:31:52.030Z,14.40
2023-02-05T22:34:20.987Z,10.90
2023-02-05T22:36:49.142Z,16.10
2023-02-05T22:39:17.280Z,15.10
2023-02-05T22:41:45.379Z,11.90
2023-02-05T22:44:13.494Z,13.40
2023-02-05T22:46:44.445Z,11.80
2023-02-05T22:49:15.407Z,11.80
2023-02-05T22:51:45.102Z,9.00
2023-02-05T22:54:14.863Z,13.50
2023-02-05T22:56:43.920Z,13.10
2023-02-05T22:59:12.917Z,15.00
2023-02-05T23:01:41.041Z,23.10
2023-02-05T23:04:09.957Z,44.50
2023-02-05T23:06:41.837Z,40.60
2023-02-05T23:09:16.714Z,58.60
2023-02-05T23:11:45.933Z,58.00
2023-02-05T23:14:16.373Z,45.90
2023-02-05T23:16:47.152Z,20.20
2023-02-05T23:19:18.992Z,18.90
2023-02-05T23:21:48.075Z,15.20
2023-02-05T23:24:17.265Z,12.90
2023-02-05T23:26:48.318Z,9.90
2023-02-05T23:29:17.282Z,13.10
2023-02-05T23:31:46.119Z,11.80
2023-02-05T23:34:14.447Z,11.60
2023-02-05T23:36:42.601Z,8.80
2023-02-05T23:39:10.881Z,12.40
2023-02-05T23:41:40.015Z,12.90
2023-02-05T23:44:11.674Z,13.20
2023-02-05T23:46:42.743Z,12.70
2023-02-05T23:49:12.342Z,13.50
2023-02-05T23:51:40.750Z,11.60
2023-02-05T23:54:11.443Z,12.70
2023-02-05T23:56:40.993Z,12.50
2023-02-05T23:59:11.635Z,10.90
